Time;durP1;ratioP1;P1;durP2;ratioP2;P2;SDS_P1;SDS_P2;PMS_P1;PMS_P2;Temp;Humidity;BMP_temperature;BMP_pressure;BME280_temperature;BME280_humidity;BME280_pressure;Samples;Min_cycle;Max_cycle;Signal;HPM_P1;HPM_P2
2022/06/06 00:01:52;;;;;;;3.33;3.13;;;15.40;99.90;15.00;101318.00;;;;5083644;28;20548;-67
2022/06/06 00:04:20;;;;;;;11.23;7.13;;;15.40;99.90;15.10;101311.00;;;;5065404;28;20545;-67
2022/06/06 00:06:47;;;;;;;2.27;2.17;;;15.40;99.90;15.00;101316.00;;;;5083638;28;20189;-67
2022/06/06 00:09:16;;;;;;;29.87;15.87;;;15.40;99.90;15.10;101312.00;;;;5063611;28;20650;-67
2022/06/06 00:11:43;;;;;;;13.97;8.77;;;15.40;99.90;15.10;101305.00;;;;5065351;28;20710;-67
2022/06/06 00:14:11;;;;;;;19.27;12.37;;;15.50;99.90;15.30;101305.00;;;;5065538;28;20279;-68
2022/06/06 00:16:38;;;;;;;4.63;4.17;;;15.50;99.90;15.30;101304.00;;;;5065244;28;20181;-67
2022/06/06 00:19:04;;;;;;;18.20;11.30;;;15.60;99.90;15.20;101312.00;;;;5065065;28;20193;-67
2022/06/06 00:21:31;;;;;;;12.97;10.17;;;15.50;99.90;15.00;101308.00;;;;5064020;28;20192;-67
2022/06/06 00:23:59;;;;;;;12.13;8.60;;;15.50;99.90;14.90;101304.00;;;;5065443;28;20219;-67
2022/06/06 00:26:28;;;;;;;0.67;0.67;;;15.40;99.90;15.20;101304.00;;;;5083620;28;20264;-67
2022/06/06 00:28:55;;;;;;;14.47;9.47;;;15.50;99.90;15.30;101301.00;;;;5083124;28;20184;-67
2022/06/06 00:36:50;;;;;;;2.70;2.30;;;15.60;99.90;15.10;101294.00;;;;5082704;28;20195;-67
2022/06/06 00:39:17;;;;;;;3.60;2.27;;;15.50;99.90;15.10;101298.00;;;;5064836;28;20186;-67
2022/06/06 00:41:49;;;;;;;14.90;9.80;;;15.50;99.90;14.90;101257.00;;;;5065173;28;20177;-67
2022/06/06 00:44:27;;;;;;;14.07;6.27;;;15.40;99.90;15.00;101301.00;;;;5064673;28;20277;-67
2022/06/06 00:47:05;;;;;;;1.83;1.30;;;15.40;99.90;15.20;101301.00;;;;5065742;28;20268;-68
2022/06/06 00:49:45;;;;;;;7.27;4.13;;;15.40;99.90;15.50;101252.00;;;;5064445;28;20200;-68
2022/06/06 00:52:39;;;;;;;1.93;1.83;;;15.50;99.90;15.10;101301.00;;;;5066561;28;20201;-68
2022/06/06 00:55:13;;;;;;;3.10;2.93;;;15.50;99.90;15.10;101306.00;;;;5065960;28;20636;-68
2022/06/06 00:57:51;;;;;;;8.70;2.00;;;15.50;99.90;15.20;101305.00;;;;5060255;28;20179;-68
2022/06/06 01:00:40;;;;;;;1.10;1.10;;;15.40;99.90;15.50;101303.00;;;;5066231;28;20545;-68
2022/06/06 01:03:12;;;;;;;7.20;4.13;;;15.50;99.90;15.30;101280.00;;;;5061278;28;20218;-67
2022/06/06 01:05:40;;;;;;;3.00;2.77;;;15.60;99.90;15.20;101279.00;;;;5064971;28;20216;-67
2022/06/06 01:08:07;;;;;;;1.07;1.07;;;15.50;99.90;15.70;101281.00;;;;5064528;28;20201;-67
2022/06/06 01:10:34;;;;;;;0.70;0.70;;;15.70;99.90;15.90;101243.00;;;;5064663;28;20190;-67
2022/06/06 01:13:03;;;;;;;3.70;3.43;;;15.80;99.90;15.70;101264.00;;;;5063385;28;20675;-67
2022/06/06 01:15:59;;;;;;;0.70;0.70;;;15.70;99.90;15.60;101270.00;;;;5063333;28;20288;-67
2022/06/06 01:18:49;;;;;;;0.50;0.50;;;15.70;99.90;15.40;101253.00;;;;5063506;28;20196;-67
2022/06/06 01:22:03;;;;;;;6.20;3.97;;;15.60;99.90;14.90;101274.00;;;;5064889;28;20578;-67
2022/06/06 01:25:03;;;;;;;7.67;6.40;;;15.40;99.90;15.30;101261.00;;;;5020112;28;20209;-67
2022/06/06 01:27:50;;;;;;;6.40;4.80;;;15.40;99.90;15.00;101268.00;;;;5081641;28;20190;-66
2022/06/06 01:30:37;;;;;;;5.70;3.97;;;15.20;99.90;14.40;101266.00;;;;5082610;28;20212;-66
2022/06/06 01:33:10;;;;;;;10.43;7.03;;;15.10;99.90;14.40;101269.00;;;;5076187;28;20264;-66
2022/06/06 01:35:41;;;;;;;15.60;6.97;;;15.00;99.90;14.40;101273.00;;;;5063834;28;20187;-67
2022/06/06 01:38:09;;;;;;;6.00;4.63;;;14.90;99.90;14.10;101269.00;;;;5081663;28;20177;-66
2022/06/06 01:40:47;;;;;;;12.50;8.40;;;14.80;99.90;14.30;101272.00;;;;5063389;28;20188;-67
2022/06/06 01:43:21;;;;;;;4.87;3.83;;;14.80;99.90;14.50;101276.00;;;;5063581;28;20242;-67
2022/06/06 01:46:00;;;;;;;4.73;4.03;;;14.80;99.90;14.30;101272.00;;;;5063829;28;20214;-67
2022/06/06 01:48:32;;;;;;;5.03;3.33;;;14.80;99.90;14.50;101233.00;;;;5047388;28;20666;-67
2022/06/06 01:50:58;;;;;;;1.87;1.73;;;14.80;99.90;14.30;101269.00;;;;5063595;28;20185;-67
2022/06/06 01:53:35;;;;;;;1.07;1.07;;;14.80;99.90;14.60;101250.00;;;;5062900;28;20250;-68
2022/06/06 01:56:03;;;;;;;8.13;4.17;;;14.70;99.90;14.50;101254.00;;;;5063244;28;20517;-68
2022/06/06 01:58:31;;;;;;;5.20;4.23;;;14.70;99.90;14.20;101250.00;;;;5064041;28;20188;-67
2022/06/06 02:00:58;;;;;;;1.97;1.30;;;14.60;99.90;14.10;101265.00;;;;5080958;28;20199;-67
2022/06/06 02:03:24;;;;;;;6.63;4.33;;;14.50;99.90;13.70;101270.00;;;;5063921;28;20193;-67
2022/06/06 02:05:50;;;;;;;3.73;2.83;;;14.40;99.90;13.90;101263.00;;;;5063218;28;20190;-67
2022/06/06 02:08:16;;;;;;;3.90;2.20;;;14.30;99.90;13.90;101277.00;;;;5063658;28;20188;-67
2022/06/06 02:10:43;;;;;;;1.23;1.23;;;14.30;99.90;13.80;101261.00;;;;5063314;28;20180;-68
2022/06/06 02:13:10;;;;;;;10.23;5.07;;;14.20;99.90;13.90;101264.00;;;;5062619;28;20306;-67
2022/06/06 02:15:36;;;;;;;1.93;1.83;;;14.20;99.90;14.30;101266.00;;;;5064565;28;20189;-67
2022/06/06 02:18:03;;;;;;;1.80;1.37;;;14.30;99.90;13.90;101263.00;;;;5081777;28;20226;-68
2022/06/06 02:20:31;;;;;;;0.40;0.40;;;14.20;99.90;14.10;101269.00;;;;5064027;28;20189;-67
2022/06/06 02:22:58;;;;;;;2.30;1.40;;;14.20;99.90;14.50;101265.00;;;;5062705;28;20212;-67
2022/06/06 02:25:26;;;;;;;3.93;3.30;;;14.30;99.90;14.70;101270.00;;;;5081000;28;20583;-67
2022/06/06 02:27:52;;;;;;;0.90;0.90;;;14.50;99.90;14.00;101261.00;;;;5063349;28;20571;-67
2022/06/06 02:30:22;;;;;;;0.77;0.77;;;14.40;99.90;14.50;101262.00;;;;5062701;28;20189;-68
2022/06/06 02:32:49;;;;;;;0.70;0.70;;;14.40;99.90;14.20;101249.00;;;;5062076;28;20208;-68
2022/06/06 02:35:23;;;;;;;0.50;0.50;;;14.40;99.90;14.30;101274.00;;;;5063081;28;20289;-68
2022/06/06 02:37:50;;;;;;;0.50;0.50;;;14.30;99.90;14.50;101275.00;;;;5063439;28;20557;-67
2022/06/06 02:40:19;;;;;;;3.60;3.30;;;14.30;99.90;14.40;101279.00;;;;5062812;28;20196;-68
2022/06/06 02:42:45;;;;;;;3.40;2.93;;;14.40;99.90;14.00;101221.00;;;;5062210;28;20190;-67
2022/06/06 02:45:15;;;;;;;3.80;3.37;;;14.20;99.90;14.00;101239.00;;;;5063436;28;20184;-67
2022/06/06 02:47:49;;;;;;;1.50;1.13;;;14.20;99.90;13.80;101286.00;;;;5063678;28;20635;-67
2022/06/06 02:50:19;;;;;;;0.70;0.70;;;14.10;99.90;14.00;101273.00;;;;5062577;28;20281;-67
2022/06/06 02:52:45;;;;;;;4.53;2.83;;;14.00;99.90;13.50;101228.00;;;;5047123;28;20673;-67
2022/06/06 12:20:27;;;;;;;1.07;1.07;;;18.40;99.90;18.10;101284.00;;;;6247472;23;20534;-69
2022/06/06 12:23:41;;;;;;;0.57;0.57;;;18.40;99.90;18.20;101286.00;;;;6244659;23;20243;-69
2022/06/06 12:26:38;;;;;;;0.10;0.10;;;18.40;99.90;17.80;101271.00;;;;6037533;23;4136685;-71
2022/06/06 12:29:32;;;;;;;0.23;0.23;;;18.00;99.90;18.40;101278.00;;;;6213882;23;20155;-70
2022/06/06 12:32:25;;;;;;;1.10;1.00;;;18.40;99.90;18.30;101292.00;;;;6190136;23;20206;-74
2022/06/06 12:38:18;;;;;;;0.70;0.70;;;17.90;99.90;17.60;101271.00;;;;6184968;23;20516;-80
2022/06/06 12:41:01;;;;;;;0.20;0.20;;;17.90;99.90;17.80;101268.00;;;;6159281;23;20165;-80
2022/06/06 12:43:59;;;;;;;0.40;0.40;;;17.90;99.90;17.80;101261.00;;;;6136354;23;20163;-81
2022/06/06 12:46:53;;;;;;;0.47;0.33;;;18.00;99.90;17.30;101193.00;;;;6136088;23;20170;-79
2022/06/06 12:49:28;;;;;;;0.20;0.20;;;17.80;99.90;17.60;101275.00;;;;6160382;23;20160;-81
2022/06/06 12:51:56;;;;;;;0.53;0.53;;;17.90;99.90;17.20;101263.00;;;;6160142;23;20193;-80
2022/06/06 12:58:07;;;;;;;0.90;0.90;;;17.80;99.90;16.80;101263.00;;;;6186243;23;20486;-68
2022/06/06 13:04:07;;;;;;;0.47;0.47;;;17.50;99.90;16.90;101258.00;;;;6164188;23;20208;-69
2022/06/06 13:07:06;;;;;;;7.73;0.90;;;17.50;99.90;16.90;101259.00;;;;6125071;23;20195;-69
2022/06/06 13:10:41;;;;;;;0.73;0.73;;;17.40;99.90;17.20;101218.00;;;;6186173;23;20147;-69
2022/06/06 13:13:34;;;;;;;0.20;0.20;;;17.50;99.90;17.10;101239.00;;;;6066143;23;20671;-69
2022/06/06 13:16:51;;;;;;;0.50;0.50;;;17.60;99.90;18.00;101264.00;;;;6066506;23;20287;-69
2022/06/06 13:19:51;;;;;;;0.30;0.30;;;17.90;99.90;17.40;101250.00;;;;6184840;23;20171;-69
2022/06/06 13:22:50;;;;;;;3.50;0.50;;;17.90;99.90;17.50;101263.00;;;;6159861;23;20175;-69
2022/06/06 13:25:56;;;;;;;0.20;0.20;;;17.90;99.90;17.50;101263.00;;;;6185805;23;20261;-70
2022/06/06 13:28:28;;;;;;;0.50;0.50;;;17.90;99.90;17.50;101260.00;;;;6185918;23;20231;-69
2022/06/06 13:31:07;;;;;;;0.90;0.90;;;17.80;99.90;17.60;101268.00;;;;6160097;23;20141;-69
2022/06/06 13:34:00;;;;;;;2.33;0.77;;;17.80;99.90;17.50;101194.00;;;;6160027;23;20155;-70
2022/06/06 13:37:23;;;;;;;0.87;0.57;;;17.80;99.90;17.00;101242.00;;;;6185777;23;20176;-70
2022/06/06 13:40:32;;;;;;;0.30;0.30;;;17.50;99.90;17.50;101253.00;;;;6056093;23;20603;-70
2022/06/06 13:43:35;;;;;;;1.07;0.80;;;17.70;99.90;17.40;101268.00;;;;6158026;23;20173;-71
2022/06/06 13:46:30;;;;;;;0.80;0.80;;;17.80;99.90;16.80;101194.00;;;;6160020;23;20183;-70
2022/06/06 13:49:02;;;;;;;3.00;0.53;;;17.40;99.90;17.30;101268.00;;;;6102860;23;20225;-70
2022/06/06 13:52:16;;;;;;;1.37;0.83;;;17.50;99.90;17.00;101270.00;;;;6157638;23;20179;-70
2022/06/06 13:54:42;;;;;;;4.37;0.60;;;17.50;99.90;16.80;101272.00;;;;6159437;23;20162;-70
2022/06/06 13:57:23;;;;;;;1.00;0.80;;;17.30;99.90;16.80;101277.00;;;;6160108;23;20155;-70
2022/06/06 14:00:14;;;;;;;0.90;0.90;;;17.30;99.90;16.90;101274.00;;;;6160565;23;20143;-70
2022/06/06 14:03:41;;;;;;;3.23;0.80;;;17.30;99.90;16.80;101293.00;;;;6159948;23;20149;-70
2022/06/06 14:06:16;;;;;;;0.87;0.67;;;17.30;99.90;17.30;101288.00;;;;6185670;23;20264;-70
2022/06/06 14:08:54;;;;;;;2.63;0.87;;;17.50;99.90;16.90;101290.00;;;;6159220;23;20165;-70
2022/06/06 14:11:45;;;;;;;0.97;0.70;;;17.50;99.90;17.00;101291.00;;;;6159506;23;20175;-70
2022/06/06 14:14:20;;;;;;;0.70;0.47;;;17.40;99.90;17.10;101291.00;;;;6159271;23;20161;-70
2022/06/06 14:16:57;;;;;;;0.20;0.20;;;17.50;99.90;17.50;101301.00;;;;6135232;23;20193;-70
2022/06/06 14:19:56;;;;;;;0.93;0.87;;;17.70;99.90;17.70;101306.00;;;;6159662;23;20469;-70
2022/06/06 14:22:35;;;;;;;21.87;0.67;;;17.90;99.90;17.10;101292.00;;;;6160164;23;20149;-71
2022/06/06 14:25:04;;;;;;;1.43;0.67;;;17.60;99.90;17.20;101291.00;;;;6159867;23;20162;-70
2022/06/06 14:27:32;;;;;;;0.60;0.60;;;17.60;99.90;17.40;101234.00;;;;6159475;23;20447;-70
2022/06/06 14:30:21;;;;;;;1.70;0.57;;;17.80;99.90;16.90;101299.00;;;;6134867;23;20163;-70
2022/06/06 14:33:00;;;;;;;3.07;1.37;;;17.60;99.90;16.50;101289.00;;;;6164726;23;20188;-70
2022/06/06 14:35:37;;;;;;;0.57;0.57;;;17.20;99.90;16.70;101288.00;;;;6134659;23;20249;-71
2022/06/06 14:38:25;;;;;;;0.50;0.50;;;17.20;99.90;16.80;101307.00;;;;6159546;23;20150;-74
2022/06/06 14:41:03;;;;;;;0.80;0.77;;;17.30;99.90;17.20;101313.00;;;;6159388;23;20454;-69
2022/06/06 14:43:46;;;;;;;0.97;0.80;;;17.50;99.90;16.30;101281.00;;;;6160349;23;20145;-68
2022/06/06 14:46:13;;;;;;;0.30;0.30;;;17.10;99.90;16.50;101284.00;;;;6129743;23;20524;-70
2022/06/06 14:48:47;;;;;;;0.50;0.50;;;17.10;99.90;16.50;101293.00;;;;6158641;23;20166;-68
2022/06/06 14:51:15;;;;;;;0.67;0.67;;;17.20;99.90;16.70;101283.00;;;;6157928;23;20170;-70
2022/06/06 14:53:56;;;;;;;3.90;1.23;;;17.10;99.90;17.00;101300.00;;;;6184489;23;20591;-71
2022/06/06 14:56:34;;;;;;;9.27;1.97;;;17.30;99.90;17.20;101274.00;;;;6158491;23;20153;-71
2022/06/06 14:59:15;;;;;;;3.60;1.30;;;17.50;99.90;17.30;101303.00;;;;6158865;23;20220;-70
2022/06/06 15:02:09;;;;;;;1.03;0.93;;;17.70;99.90;17.40;101300.00;;;;6158633;23;20149;-72
2022/06/06 15:05:39;;;;;;;0.40;0.40;;;17.70;99.90;17.40;101273.00;;;;6133993;23;20247;-75
2022/06/06 15:08:18;;;;;;;0.20;0.20;;;17.70;99.90;17.90;101303.00;;;;6135120;23;20178;-75
2022/06/06 15:11:12;;;;;;;1.37;1.27;;;18.00;99.90;17.40;101287.00;;;;6158568;23;20166;-74
2022/06/06 15:14:10;;;;;;;2.67;0.80;;;18.00;99.90;17.30;101163.00;;;;6121311;23;20607;-76
2022/06/06 15:16:48;;;;;;;2.33;1.10;;;17.90;99.90;17.30;101292.00;;;;6121620;23;20169;-75
2022/06/06 15:19:50;;;;;;;0.30;0.30;;;17.80;99.90;17.40;101278.00;;;;6159607;23;20153;-76
2022/06/06 15:22:35;;;;;;;2.77;0.73;;;17.90;99.90;17.80;101278.00;;;;6134847;23;20577;-76
2022/06/06 15:25:23;;;;;;;0.40;0.40;;;18.10;99.90;18.10;101292.00;;;;6134830;23;20225;-76
2022/06/06 15:28:08;;;;;;;0.83;0.20;;;18.30;99.90;18.00;101287.00;;;;6158957;23;20145;-76
2022/06/06 15:33:47;;;;;;;0.40;0.40;;;18.30;99.90;17.50;101286.00;;;;6185509;23;20155;-76
2022/06/06 15:37:15;;;;;;;2.67;0.83;;;18.30;99.90;17.30;101280.00;;;;6158357;23;20658;-76
2022/06/06 15:39:59;;;;;;;1.00;0.90;;;18.10;99.90;17.20;101281.00;;;;6158783;23;20166;-76
2022/06/06 15:42:47;;;;;;;0.40;0.40;;;17.80;99.90;17.60;101285.00;;;;6158800;23;20168;-76
2022/06/06 15:45:47;;;;;;;1.03;0.77;;;17.90;99.90;17.80;101289.00;;;;6134953;23;20160;-77
2022/06/06 15:48:40;;;;;;;0.70;0.70;;;18.10;99.90;17.60;101202.00;;;;6184429;23;20184;-76
2022/06/06 15:51:28;;;;;;;0.43;0.43;;;18.10;99.90;17.50;101286.00;;;;6157023;23;20191;-77
2022/06/06 15:54:24;;;;;;;0.87;0.87;;;17.90;99.90;17.10;101227.00;;;;6157578;23;20168;-77
2022/06/06 15:57:09;;;;;;;0.60;0.60;;;17.60;99.90;17.20;101268.00;;;;6184053;23;20188;-77
2022/06/06 15:59:56;;;;;;;0.83;0.70;;;17.70;99.90;17.50;101281.00;;;;6158685;23;20153;-77
2022/06/06 16:02:39;;;;;;;0.53;0.53;;;17.80;99.90;17.40;101288.00;;;;6185392;23;20162;-77
2022/06/06 16:05:28;;;;;;;0.40;0.40;;;17.90;99.90;17.60;101263.00;;;;6135114;23;20586;-77
2022/06/06 16:08:34;;;;;;;1.63;1.53;;;18.00;99.90;17.30;101277.00;;;;6159633;23;20194;-77
2022/06/06 16:11:36;;;;;;;0.20;0.20;;;17.90;99.90;18.00;101283.00;;;;6185580;23;20146;-77
2022/06/06 16:14:37;;;;;;;0.30;0.30;;;18.10;99.90;18.70;101293.00;;;;6124785;23;20650;-78
2022/06/06 16:17:09;;;;;;;1.27;0.57;;;18.60;99.90;19.00;101280.00;;;;6183525;23;20164;-77
2022/06/06 16:19:50;;;;;;;2.63;1.00;;;18.80;99.90;17.90;101282.00;;;;6157475;23;20179;-77
2022/06/06 16:22:29;;;;;;;0.50;0.50;;;18.20;99.90;18.50;101292.00;;;;6132805;23;20166;-77
2022/06/06 16:24:58;;;;;;;0.83;0.83;;;18.40;99.90;18.00;101288.00;;;;6134024;23;20201;-77
2022/06/06 16:27:48;;;;;;;0.50;0.50;;;18.40;99.90;17.90;101266.00;;;;6157358;23;20302;-77
2022/06/06 16:30:22;;;;;;;0.97;0.77;;;18.20;99.90;17.80;101278.00;;;;6141943;23;20175;-77
2022/06/06 16:33:22;;;;;;;0.10;0.10;;;18.20;99.90;18.20;101274.00;;;;6183350;23;20168;-75
2022/06/06 16:35:58;;;;;;;0.80;0.80;;;18.30;99.90;17.90;101266.00;;;;6157020;23;20164;-76
2022/06/06 16:39:02;;;;;;;0.20;0.20;;;18.40;99.90;17.80;101272.00;;;;6183377;23;20227;-75
2022/06/06 16:48:03;;;;;;;0.20;0.20;;;18.10;99.90;18.20;101286.00;;;;6160885;23;20596;-78
2022/06/06 16:51:15;;;;;;;1.90;1.80;;;18.50;99.90;17.40;101272.00;;;;6063201;23;20215;-77
2022/06/06 16:54:09;;;;;;;0.23;0.23;;;18.10;99.90;17.90;101282.00;;;;6145690;23;20492;-77
2022/06/06 16:57:06;;;;;;;1.50;1.40;;;18.00;99.90;17.70;101283.00;;;;6134881;23;20228;-77
2022/06/06 16:59:54;;;;;;;1.00;0.90;;;18.00;99.90;17.80;101294.00;;;;6159325;23;20470;-76
2022/06/06 17:02:32;;;;;;;0.20;0.20;;;18.10;99.90;18.10;101218.00;;;;6185295;23;20471;-76
2022/06/06 17:08:46;;;;;;;0.20;0.20;;;18.20;99.90;18.30;101290.00;;;;6162804;23;20223;-76
2022/06/06 17:12:04;;;;;;;0.83;0.83;;;18.30;99.90;17.90;101288.00;;;;6134208;23;20159;-76
2022/06/06 17:14:48;;;;;;;0.20;0.20;;;18.30;99.90;18.90;101302.00;;;;6113225;23;20163;-75
2022/06/06 17:17:24;;;;;;;0.93;0.73;;;18.60;99.90;18.30;101297.00;;;;6134908;23;20248;-75
2022/06/06 17:20:17;;;;;;;0.33;0.30;;;18.60;99.90;18.60;101304.00;;;;6135127;23;20161;-75
2022/06/06 17:23:03;;;;;;;0.20;0.20;;;18.70;99.90;18.50;101307.00;;;;6159833;23;20251;-75
2022/06/06 17:25:46;;;;;;;4.80;1.50;;;18.60;99.90;18.40;101304.00;;;;6160152;23;20578;-75
2022/06/06 17:28:20;;;;;;;0.20;0.20;;;18.60;99.90;18.50;101245.00;;;;6159807;23;20231;-76
2022/06/06 17:30:59;;;;;;;0.87;0.60;;;18.60;99.90;18.60;101310.00;;;;6186268;23;20138;-76
2022/06/06 17:33:39;;;;;;;0.60;0.60;;;18.70;99.90;17.70;101289.00;;;;6134948;23;20174;-75
2022/06/06 17:36:18;;;;;;;0.10;0.10;;;18.20;99.90;17.70;101288.00;;;;6159764;23;20168;-75
2022/06/06 17:38:47;;;;;;;0.90;0.87;;;18.00;99.90;17.70;101304.00;;;;6185719;23;20159;-75
2022/06/06 17:41:31;;;;;;;0.53;0.53;;;18.10;99.90;17.50;101289.00;;;;6159903;23;20144;-75
2022/06/06 17:44:31;;;;;;;2.27;1.00;;;17.90;99.90;17.60;101288.00;;;;6135452;23;20173;-75
2022/06/06 17:47:09;;;;;;;4.17;1.13;;;17.90;99.90;17.60;101246.00;;;;6135286;23;20170;-68
2022/06/06 17:49:50;;;;;;;6.30;1.43;;;17.90;99.90;17.90;101297.00;;;;6112183;23;20226;-76
2022/06/06 17:53:02;;;;;;;0.30;0.30;;;18.00;99.90;17.90;101240.00;;;;6160503;23;20186;-76
2022/06/06 17:56:12;;;;;;;0.50;0.50;;;18.10;99.90;18.00;101303.00;;;;6185767;23;20193;-76
2022/06/06 17:58:57;;;;;;;1.07;0.67;;;18.10;99.90;17.80;101300.00;;;;6115445;23;20603;-76
2022/06/06 18:01:22;;;;;;;0.57;0.57;;;18.00;99.90;18.10;101310.00;;;;6159033;23;20489;-76
2022/06/06 18:04:14;;;;;;;0.50;0.50;;;18.10;99.90;17.80;101291.00;;;;6184763;23;20146;-75
2022/06/06 18:07:21;;;;;;;0.20;0.20;;;18.00;99.90;18.40;101297.00;;;;6185215;23;20154;-75
2022/06/06 18:09:55;;;;;;;0.50;0.50;;;18.10;99.90;18.60;101242.00;;;;6184661;23;20177;-74
2022/06/06 18:12:45;;;;;;;0.23;0.23;;;18.40;99.90;18.50;101309.00;;;;6185263;23;20594;-75
2022/06/06 18:15:28;;;;;;;0.20;0.20;;;18.40;99.90;18.40;101255.00;;;;6184512;23;20142;-75
2022/06/06 18:18:34;;;;;;;0.20;0.20;;;18.30;99.90;18.50;101307.00;;;;6158471;23;20160;-75
2022/06/06 18:21:18;;;;;;;0.73;0.73;;;18.50;99.90;18.30;101295.00;;;;6121811;23;20182;-76
2022/06/06 18:24:06;;;;;;;0.20;0.20;;;18.40;99.90;17.70;101296.00;;;;6158183;23;20161;-76
2022/06/06 18:26:47;;;;;;;0.40;0.40;;;18.00;99.90;18.30;101277.00;;;;6134247;23;20162;-76
2022/06/06 18:29:24;;;;;;;0.30;0.30;;;18.20;99.90;18.90;101301.00;;;;6158561;23;20229;-75
2022/06/06 18:32:01;;;;;;;0.20;0.20;;;18.40;99.90;19.00;101277.00;;;;6133822;23;20220;-75
2022/06/06 18:34:48;;;;;;;0.30;0.30;;;18.60;99.90;18.90;101289.00;;;;6158734;23;20243;-75
2022/06/06 18:37:40;;;;;;;0.40;0.40;;;18.70;99.90;19.00;101273.00;;;;6133794;23;20181;-76
2022/06/06 18:40:33;;;;;;;0.30;0.30;;;18.70;99.90;18.80;101279.00;;;;6133908;23;20234;-76
2022/06/06 18:43:00;;;;;;;0.30;0.30;;;18.70;99.90;18.70;101299.00;;;;6158908;23;20163;-76
2022/06/06 18:45:33;;;;;;;0.40;0.40;;;18.70;99.90;18.50;101276.00;;;;6159015;23;20226;-76
2022/06/06 18:48:01;;;;;;;0.30;0.30;;;18.50;99.90;18.50;101283.00;;;;6158957;23;20233;-76
2022/06/06 18:50:38;;;;;;;0.40;0.40;;;18.40;99.90;18.40;101285.00;;;;6185284;23;20163;-76
2022/06/06 18:53:16;;;;;;;0.40;0.40;;;18.40;99.90;18.20;101287.00;;;;6159529;23;20172;-76
2022/06/06 18:55:52;;;;;;;0.40;0.40;;;18.30;99.90;18.30;101221.00;;;;6160705;23;20156;-76
2022/06/06 18:58:40;;;;;;;0.40;0.40;;;18.30;99.90;18.40;101225.00;;;;6136144;23;20205;-76
2022/06/06 19:01:51;;;;;;;0.40;0.40;;;18.30;99.90;18.20;101286.00;;;;6135903;23;20196;-76
2022/06/06 19:04:38;;;;;;;0.40;0.40;;;18.30;99.90;18.40;101221.00;;;;6134152;23;20169;-75
2022/06/06 19:07:30;;;;;;;0.40;0.40;;;18.10;99.90;18.20;101297.00;;;;6132899;23;20160;-75
2022/06/06 19:10:36;;;;;;;0.50;0.50;;;18.30;99.90;18.00;101290.00;;;;6159501;23;20179;-76
2022/06/06 19:13:21;;;;;;;0.93;0.93;;;18.10;99.90;18.30;101301.00;;;;6121560;23;20193;-75
2022/06/06 19:15:49;;;;;;;0.50;0.50;;;18.10;99.90;18.10;101294.00;;;;6187308;23;20149;-75
2022/06/06 19:18:17;;;;;;;0.63;0.63;;;18.20;99.90;18.20;101291.00;;;;6161042;23;20164;-76
2022/06/06 19:21:17;;;;;;;0.50;0.50;;;18.10;99.90;18.20;101296.00;;;;6186115;23;20170;-76
2022/06/06 19:23:57;;;;;;;0.50;0.50;;;18.10;99.90;17.60;101300.00;;;;6154185;23;20193;-75
2022/06/06 19:26:35;;;;;;;0.50;0.50;;;17.80;99.90;17.90;101298.00;;;;6135338;23;20215;-76
2022/06/06 19:29:21;;;;;;;0.50;0.50;;;17.90;99.90;17.60;101217.00;;;;6186757;23;20644;-76
2022/06/06 19:32:21;;;;;;;0.40;0.40;;;17.80;99.90;17.80;101296.00;;;;6136843;23;20223;-75
2022/06/06 19:34:57;;;;;;;0.50;0.50;;;17.60;99.90;17.50;101306.00;;;;6116745;23;20482;-75
2022/06/06 19:37:43;;;;;;;0.50;0.50;;;17.70;99.90;17.70;101279.00;;;;6160915;23;20168;-76
2022/06/06 19:40:15;;;;;;;0.60;0.60;;;17.60;99.90;17.70;101297.00;;;;6136227;23;20160;-76
2022/06/06 19:42:56;;;;;;;0.50;0.50;;;17.70;99.90;17.70;101294.00;;;;6161118;23;20167;-75
2022/06/06 19:45:38;;;;;;;0.50;0.50;;;17.60;99.90;17.80;101304.00;;;;6136422;23;20161;-76
2022/06/06 19:48:24;;;;;;;0.57;0.57;;;17.60;99.90;17.40;101299.00;;;;6161198;23;20239;-76
2022/06/06 19:50:59;;;;;;;0.50;0.50;;;17.40;99.90;17.30;101299.00;;;;6160360;23;20173;-75
2022/06/06 19:53:38;;;;;;;0.60;0.60;;;17.30;99.90;17.40;101288.00;;;;6136537;23;20230;-75
2022/06/06 19:56:37;;;;;;;0.57;0.57;;;17.20;99.90;17.40;101300.00;;;;6160854;23;20152;-75
2022/06/06 19:59:05;;;;;;;0.60;0.60;;;17.20;99.90;17.30;101295.00;;;;6128970;23;20163;-75
2022/06/06 20:01:35;;;;;;;0.60;0.60;;;17.30;99.90;16.90;101238.00;;;;6160940;23;20157;-75
2022/06/06 20:04:15;;;;;;;0.50;0.50;;;16.90;99.90;16.90;101306.00;;;;6136286;23;20156;-75
2022/06/06 20:06:57;;;;;;;0.77;0.77;;;16.90;99.90;17.20;101297.00;;;;6136348;23;20163;-75
2022/06/06 20:09:30;;;;;;;0.60;0.60;;;17.00;99.90;16.60;101313.00;;;;6161068;23;20136;-75
2022/06/06 20:12:03;;;;;;;0.60;0.60;;;16.90;99.90;16.70;101318.00;;;;6160176;23;20249;-74
2022/06/06 20:14:48;;;;;;;0.60;0.60;;;16.70;99.90;16.60;101298.00;;;;6187210;23;20214;-76
2022/06/06 20:17:29;;;;;;;0.60;0.60;;;16.60;99.90;16.70;101310.00;;;;6160773;23;20160;-76
2022/06/06 20:20:27;;;;;;;0.50;0.50;;;16.60;99.90;16.00;101318.00;;;;6135809;23;20172;-75
2022/06/06 20:23:03;;;;;;;0.70;0.70;;;16.30;99.90;16.70;101286.00;;;;6135548;23;20167;-74
2022/06/06 20:25:34;;;;;;;0.50;0.50;;;16.50;99.90;16.70;101250.00;;;;6160633;23;20197;-75
2022/06/06 20:28:09;;;;;;;0.60;0.60;;;16.60;99.90;16.10;101278.00;;;;6136496;23;20168;-75
2022/06/06 20:33:42;;;;;;;0.70;0.70;;;16.10;99.90;16.50;101312.00;;;;6164583;23;20655;-75
2022/06/06 20:36:29;;;;;;;0.60;0.60;;;16.20;99.90;16.40;101313.00;;;;6160110;23;20172;-75
2022/06/06 20:39:13;;;;;;;0.50;0.50;;;16.20;99.90;16.60;101320.00;;;;6161025;23;20209;-76
2022/06/06 20:41:50;;;;;;;0.60;0.60;;;16.20;99.90;16.50;101321.00;;;;6135504;23;20159;-75
2022/06/06 20:44:29;;;;;;;0.60;0.60;;;16.30;99.90;16.00;101328.00;;;;6160181;23;20141;-75
2022/06/06 20:47:01;;;;;;;0.50;0.50;;;16.10;99.90;15.90;101327.00;;;;6160972;23;20140;-75
2022/06/06 20:49:39;;;;;;;0.60;0.60;;;15.90;99.90;16.10;101319.00;;;;6160574;23;20216;-75
2022/06/06 20:52:39;;;;;;;0.60;0.60;;;15.80;99.90;16.10;101319.00;;;;6135467;23;20185;-75
2022/06/06 20:55:49;;;;;;;0.50;0.50;;;15.80;99.90;16.20;101320.00;;;;6159609;23;20158;-75
2022/06/06 20:58:16;;;;;;;0.60;0.60;;;16.00;99.90;16.00;101317.00;;;;6119931;23;20166;-75
2022/06/06 21:00:48;;;;;;;0.50;0.50;;;15.90;99.90;15.60;101306.00;;;;6135694;23;20581;-78
2022/06/06 21:03:19;;;;;;;0.60;0.60;;;15.70;99.90;16.00;101306.00;;;;6135971;23;20172;-78
2022/06/06 21:05:49;;;;;;;0.60;0.60;;;15.80;99.90;15.50;101249.00;;;;6136152;23;20576;-74
2022/06/06 21:08:26;;;;;;;0.63;0.63;;;15.70;99.90;15.80;101311.00;;;;6135203;23;20185;-73
2022/06/06 21:10:52;;;;;;;0.50;0.50;;;15.80;99.90;15.40;101303.00;;;;6185978;23;20595;-72
2022/06/06 21:13:24;;;;;;;0.47;0.47;;;15.70;99.90;15.70;101313.00;;;;6159867;23;20585;-73
2022/06/06 21:15:50;;;;;;;0.40;0.40;;;15.70;99.90;15.40;101304.00;;;;6160084;23;20143;-73
2022/06/06 21:18:19;;;;;;;0.40;0.40;;;15.50;99.90;15.90;101299.00;;;;6135904;23;20155;-73
2022/06/06 21:21:01;;;;;;;0.40;0.40;;;15.70;99.90;15.80;101293.00;;;;6135971;23;20192;-73
2022/06/06 21:23:30;;;;;;;0.40;0.40;;;15.70;99.90;15.50;101287.00;;;;6135659;23;20174;-74
2022/06/06 21:26:03;;;;;;;0.40;0.40;;;15.60;99.90;15.40;101283.00;;;;6160508;23;20227;-73
2022/06/06 21:28:29;;;;;;;0.60;0.60;;;15.50;99.90;15.30;101278.00;;;;6133728;23;20585;-73
2022/06/06 21:30:55;;;;;;;0.40;0.40;;;15.50;99.90;15.40;101286.00;;;;6157986;23;20203;-73
2022/06/06 21:33:21;;;;;;;0.30;0.30;;;15.50;99.90;15.10;101283.00;;;;6157940;23;20533;-74
2022/06/06 21:36:05;;;;;;;0.37;0.37;;;15.30;99.90;15.30;101278.00;;;;6158482;23;20170;-75
2022/06/06 21:38:32;;;;;;;0.40;0.40;;;15.30;99.90;15.50;101199.00;;;;6157662;23;20577;-74
2022/06/06 21:40:58;;;;;;;0.40;0.40;;;15.40;99.90;15.90;101251.00;;;;6133633;23;20569;-74
2022/06/06 21:43:25;;;;;;;0.40;0.40;;;15.60;99.90;15.60;101271.00;;;;6158043;23;20163;-74
2022/06/06 21:45:51;;;;;;;0.50;0.50;;;15.60;99.90;15.60;101255.00;;;;6184621;23;20148;-75
2022/06/06 21:48:36;;;;;;;0.40;0.40;;;15.60;99.90;15.50;101265.00;;;;6157808;23;20600;-74